Wooster, OH

2:34 AM EST on February 25, 2017 (GMT -0500)
Wayne County | | Change Station

Elev 1135 ft 40.87 °N, 81.89 °W | Updated 9 minutes ago

Light Rain
Light Rain
54 °F
Feels Like 54 °F
N
16
Wind Variable Wind from WNW

Today
High -- | Low -- °F
--% Chance of Precip.
Yesterday
High -- | Low -- °F
Precip. -- in
Pressure 29.55 in
Visibility 8.0 miles
Clouds Few 1100 ft
Mostly Cloudy 1800 ft
Overcast 2400 ft
Dew Point 51 °F
Humidity 90%
Rainfall 0.76 in
Snow Depth Not available.
7:07 AM 6:14 PM
Waning Crescent, 2% visible
SPECI KBJJ 250725Z AUTO 29014KT 8SM -RA FEW011 BKN018 OVC024 12/11 A2955 RMK AO2 WSHFT 0653 P0001 T01220106
Pressure 29.55 in
Visibility 8.0 miles
Clouds Few 1100 ft
Mostly Cloudy 1800 ft
Overcast 2400 ft
Dew Point 51 °F
Humidity 90%
Rainfall 0.76 in
Snow Depth Not available.
7:07 AM 6:14 PM
Waning Crescent, 2% visible
SPECI KBJJ 250725Z AUTO 29014KT 8SM -RA FEW011 BKN018 OVC024 12/11 A2955 RMK AO2 WSHFT 0653 P0001 T01220106

Get Your Daily Forecast Email!

Thanks for signing up!

Be on the lookout for a verification email in your inbox.

You'll start receiving the daily forecast at 8 AM.

×

10-Day Weather Forecast

Almanac

Astronomy

Feb. 25, 2017 Rise Set
Actual Time
Civil Twilight
Nautical Twilight
Astronomical Twilight
Moon
Length of Visible Light
Length of Day
Tomorrow will be .
, % of the Moon is Illuminated

Today's Extremes

State Highs State Lows

Community

WunderPhotos

Upload Photos

1,962,540 photos uploaded!

WunderBlog® & News

Nearby

Air Quality

  Air Quality AQ Index Pollutant
Not available.

Snow Depth

Station Depth Elevation

Earthquake Activity

City Distance Mag. Time & Date
Minimum magnitude displayed is 2.5.

Coastal Water Temperatures

Place Temperature

Stations

Nearby Weather Stations

Station Location Temp. Windchill Dew Point Humidity Wind Precip. Elev Updated Type
                   

Watches & Warnings

There are currently no watches in effect.